sensor_id;sensor_type;location;lat;lon;timestamp;temperature;humidity
27540;DHT22;15906;52.046;4.724;2023-07-29T00:00:57;18.00;99.90
27540;DHT22;15906;52.046;4.724;2023-07-29T00:03:23;17.90;99.90
27540;DHT22;15906;52.046;4.724;2023-07-29T00:05:48;17.90;99.90
27540;DHT22;15906;52.046;4.724;2023-07-29T00:08:14;17.90;99.90
27540;DHT22;15906;52.046;4.724;2023-07-29T00:10:40;17.80;99.90
27540;DHT22;15906;52.046;4.724;2023-07-29T00:13:05;17.90;99.90
27540;DHT22;15906;52.046;4.724;2023-07-29T00:15:31;17.90;99.90
27540;DHT22;15906;52.046;4.724;2023-07-29T00:17:57;17.90;99.90
27540;DHT22;15906;52.046;4.724;2023-07-29T00:20:23;17.90;99.90
27540;DHT22;15906;52.046;4.724;2023-07-29T00:22:48;17.80;99.90
27540;DHT22;15906;52.046;4.724;2023-07-29T00:25:19;17.70;99.90
27540;DHT22;15906;52.046;4.724;2023-07-29T00:27:45;17.70;99.90
27540;DHT22;15906;52.046;4.724;2023-07-29T00:30:11;17.60;99.90
27540;DHT22;15906;52.046;4.724;2023-07-29T00:32:36;17.60;99.90
27540;DHT22;15906;52.046;4.724;2023-07-29T00:35:02;17.60;99.90
27540;DHT22;15906;52.046;4.724;2023-07-29T00:37:29;17.60;99.90
27540;DHT22;15906;52.046;4.724;2023-07-29T00:39:55;17.60;99.90
27540;DHT22;15906;52.046;4.724;2023-07-29T00:42:21;17.60;99.90
27540;DHT22;15906;52.046;4.724;2023-07-29T00:44:46;17.50;99.90
27540;DHT22;15906;52.046;4.724;2023-07-29T00:47:12;17.60;99.90
27540;DHT22;15906;52.046;4.724;2023-07-29T00:49:40;17.50;99.90
27540;DHT22;15906;52.046;4.724;2023-07-29T00:52:06;17.50;99.90
27540;DHT22;15906;52.046;4.724;2023-07-29T00:54:31;17.40;99.90
27540;DHT22;15906;52.046;4.724;2023-07-29T00:56:57;17.40;99.90
27540;DHT22;15906;52.046;4.724;2023-07-29T00:59:23;17.40;99.90
27540;DHT22;15906;52.046;4.724;2023-07-29T01:01:48;17.40;99.90
27540;DHT22;15906;52.046;4.724;2023-07-29T01:04:14;17.60;99.90
27540;DHT22;15906;52.046;4.724;2023-07-29T01:06:49;17.50;99.90
27540;DHT22;15906;52.046;4.724;2023-07-29T01:09:30;17.70;99.90
27540;DHT22;15906;52.046;4.724;2023-07-29T01:15:16;17.60;99.90
27540;DHT22;15906;52.046;4.724;2023-07-29T01:17:47;17.50;99.90
27540;DHT22;15906;52.046;4.724;2023-07-29T01:20:16;17.50;99.90
27540;DHT22;15906;52.046;4.724;2023-07-29T01:22:43;17.50;99.90
27540;DHT22;15906;52.046;4.724;2023-07-29T01:25:09;17.50;99.90
27540;DHT22;15906;52.046;4.724;2023-07-29T01:27:34;17.50;99.90
27540;DHT22;15906;52.046;4.724;2023-07-29T01:30:00;17.40;99.90
27540;DHT22;15906;52.046;4.724;2023-07-29T01:32:44;17.40;99.90
27540;DHT22;15906;52.046;4.724;2023-07-29T01:35:22;17.40;99.90
27540;DHT22;15906;52.046;4.724;2023-07-29T01:37:52;17.50;99.90
27540;DHT22;15906;52.046;4.724;2023-07-29T01:40:22;17.50;99.90
27540;DHT22;15906;52.046;4.724;2023-07-29T01:42:49;17.50;99.90
27540;DHT22;15906;52.046;4.724;2023-07-29T01:45:14;17.40;99.90
27540;DHT22;15906;52.046;4.724;2023-07-29T01:47:40;17.40;99.90
27540;DHT22;15906;52.046;4.724;2023-07-29T01:50:07;17.40;99.90
27540;DHT22;15906;52.046;4.724;2023-07-29T01:52:33;17.40;99.90
27540;DHT22;15906;52.046;4.724;2023-07-29T01:54:58;17.40;99.90
27540;DHT22;15906;52.046;4.724;2023-07-29T01:57:24;17.30;99.90
27540;DHT22;15906;52.046;4.724;2023-07-29T01:59:49;17.30;99.90
27540;DHT22;15906;52.046;4.724;2023-07-29T02:02:15;17.30;99.90
27540;DHT22;15906;52.046;4.724;2023-07-29T02:04:40;17.30;99.90
27540;DHT22;15906;52.046;4.724;2023-07-29T02:07:06;17.30;99.90
27540;DHT22;15906;52.046;4.724;2023-07-29T02:09:32;17.20;99.90
27540;DHT22;15906;52.046;4.724;2023-07-29T02:11:57;17.10;99.90
27540;DHT22;15906;52.046;4.724;2023-07-29T02:14:23;17.10;99.90
27540;DHT22;15906;52.046;4.724;2023-07-29T02:16:49;17.10;99.90
27540;DHT22;15906;52.046;4.724;2023-07-29T02:19:15;17.10;99.90
27540;DHT22;15906;52.046;4.724;2023-07-29T02:21:41;17.10;99.90
27540;DHT22;15906;52.046;4.724;2023-07-29T02:24:06;17.10;99.90
27540;DHT22;15906;52.046;4.724;2023-07-29T02:26:32;17.10;99.90
27540;DHT22;15906;52.046;4.724;2023-07-29T02:28:57;17.10;99.90
27540;DHT22;15906;52.046;4.724;2023-07-29T02:31:24;17.00;99.90
27540;DHT22;15906;52.046;4.724;2023-07-29T02:33:51;17.10;99.90
27540;DHT22;15906;52.046;4.724;2023-07-29T02:36:17;17.10;99.90
27540;DHT22;15906;52.046;4.724;2023-07-29T02:38:43;17.10;99.90
27540;DHT22;15906;52.046;4.724;2023-07-29T02:41:09;17.10;99.90
27540;DHT22;15906;52.046;4.724;2023-07-29T02:43:35;17.00;99.90
27540;DHT22;15906;52.046;4.724;2023-07-29T02:46:02;17.10;99.90
27540;DHT22;15906;52.046;4.724;2023-07-29T02:48:28;17.10;99.90
27540;DHT22;15906;52.046;4.724;2023-07-29T02:50:54;17.10;99.90
27540;DHT22;15906;52.046;4.724;2023-07-29T02:53:19;17.10;99.90
27540;DHT22;15906;52.046;4.724;2023-07-29T02:55:45;17.00;99.90
27540;DHT22;15906;52.046;4.724;2023-07-29T02:58:11;17.00;99.90
27540;DHT22;15906;52.046;4.724;2023-07-29T03:00:36;17.00;99.90
27540;DHT22;15906;52.046;4.724;2023-07-29T03:03:02;17.00;99.90
27540;DHT22;15906;52.046;4.724;2023-07-29T03:05:28;17.00;99.90
27540;DHT22;15906;52.046;4.724;2023-07-29T03:07:53;17.00;99.90
27540;DHT22;15906;52.046;4.724;2023-07-29T03:10:19;16.90;99.90
27540;DHT22;15906;52.046;4.724;2023-07-29T03:12:45;17.10;99.90
27540;DHT22;15906;52.046;4.724;2023-07-29T03:15:11;17.00;99.90
27540;DHT22;15906;52.046;4.724;2023-07-29T03:17:37;17.00;99.90
27540;DHT22;15906;52.046;4.724;2023-07-29T03:20:03;17.00;99.90
27540;DHT22;15906;52.046;4.724;2023-07-29T03:22:29;17.00;99.90
27540;DHT22;15906;52.046;4.724;2023-07-29T03:24:54;17.00;99.90
27540;DHT22;15906;52.046;4.724;2023-07-29T03:27:20;17.00;99.90
27540;DHT22;15906;52.046;4.724;2023-07-29T03:29:45;16.90;99.90
27540;DHT22;15906;52.046;4.724;2023-07-29T03:32:11;16.90;99.90
27540;DHT22;15906;52.046;4.724;2023-07-29T03:34:37;17.00;99.90
27540;DHT22;15906;52.046;4.724;2023-07-29T03:37:04;16.90;99.90
27540;DHT22;15906;52.046;4.724;2023-07-29T03:39:29;17.00;99.90
27540;DHT22;15906;52.046;4.724;2023-07-29T03:41:55;17.00;99.90
27540;DHT22;15906;52.046;4.724;2023-07-29T03:44:20;16.90;99.90
27540;DHT22;15906;52.046;4.724;2023-07-29T03:46:46;16.90;99.90
27540;DHT22;15906;52.046;4.724;2023-07-29T03:49:11;16.90;99.90
27540;DHT22;15906;52.046;4.724;2023-07-29T03:51:37;16.80;99.90
27540;DHT22;15906;52.046;4.724;2023-07-29T03:54:02;16.80;99.90
27540;DHT22;15906;52.046;4.724;2023-07-29T03:56:28;16.80;99.90
27540;DHT22;15906;52.046;4.724;2023-07-29T03:58:56;16.90;99.90
27540;DHT22;15906;52.046;4.724;2023-07-29T04:01:27;16.90;99.90
27540;DHT22;15906;52.046;4.724;2023-07-29T04:03:52;16.90;99.90
27540;DHT22;15906;52.046;4.724;2023-07-29T04:06:18;17.00;99.90
27540;DHT22;15906;52.046;4.724;2023-07-29T04:08:43;16.90;99.90
27540;DHT22;15906;52.046;4.724;2023-07-29T04:11:09;16.90;99.90
27540;DHT22;15906;52.046;4.724;2023-07-29T04:13:34;16.90;99.90
27540;DHT22;15906;52.046;4.724;2023-07-29T04:16:00;16.90;99.90
27540;DHT22;15906;52.046;4.724;2023-07-29T04:18:25;17.00;99.90
27540;DHT22;15906;52.046;4.724;2023-07-29T04:20:51;17.00;99.90
27540;DHT22;15906;52.046;4.724;2023-07-29T04:23:17;17.00;99.90
27540;DHT22;15906;52.046;4.724;2023-07-29T04:25:42;16.90;99.90
27540;DHT22;15906;52.046;4.724;2023-07-29T04:28:08;16.80;99.90
27540;DHT22;15906;52.046;4.724;2023-07-29T04:30:33;17.00;99.90
27540;DHT22;15906;52.046;4.724;2023-07-29T04:32:59;17.00;99.90
27540;DHT22;15906;52.046;4.724;2023-07-29T04:35:24;17.00;99.90
27540;DHT22;15906;52.046;4.724;2023-07-29T04:37:50;16.90;99.90
27540;DHT22;15906;52.046;4.724;2023-07-29T04:40:16;17.00;99.90
27540;DHT22;15906;52.046;4.724;2023-07-29T04:42:41;17.10;99.90
27540;DHT22;15906;52.046;4.724;2023-07-29T04:45:07;17.10;99.90
27540;DHT22;15906;52.046;4.724;2023-07-29T04:47:32;17.10;99.90
27540;DHT22;15906;52.046;4.724;2023-07-29T04:49:58;17.10;99.90
27540;DHT22;15906;52.046;4.724;2023-07-29T04:52:23;17.10;99.90
27540;DHT22;15906;52.046;4.724;2023-07-29T04:54:49;17.10;99.90
27540;DHT22;15906;52.046;4.724;2023-07-29T04:57:14;17.10;99.90
27540;DHT22;15906;52.046;4.724;2023-07-29T04:59:40;17.10;99.90
27540;DHT22;15906;52.046;4.724;2023-07-29T05:02:06;17.10;99.90
27540;DHT22;15906;52.046;4.724;2023-07-29T05:04:31;17.20;99.90
27540;DHT22;15906;52.046;4.724;2023-07-29T05:06:57;17.30;99.90
27540;DHT22;15906;52.046;4.724;2023-07-29T05:09:23;17.40;99.90
27540;DHT22;15906;52.046;4.724;2023-07-29T05:11:49;17.40;99.90
27540;DHT22;15906;52.046;4.724;2023-07-29T05:14:16;17.40;99.90
27540;DHT22;15906;52.046;4.724;2023-07-29T05:16:42;17.40;99.90
27540;DHT22;15906;52.046;4.724;2023-07-29T05:19:08;17.40;99.90
27540;DHT22;15906;52.046;4.724;2023-07-29T05:21:33;17.50;99.90
27540;DHT22;15906;52.046;4.724;2023-07-29T05:23:59;17.40;99.90
27540;DHT22;15906;52.046;4.724;2023-07-29T05:26:24;17.40;99.90
27540;DHT22;15906;52.046;4.724;2023-07-29T05:28:50;17.50;99.90
27540;DHT22;15906;52.046;4.724;2023-07-29T05:31:16;17.60;99.90
27540;DHT22;15906;52.046;4.724;2023-07-29T05:33:41;17.60;99.90
27540;DHT22;15906;52.046;4.724;2023-07-29T05:36:07;17.60;99.90
27540;DHT22;15906;52.046;4.724;2023-07-29T05:38:32;17.60;99.90
27540;DHT22;15906;52.046;4.724;2023-07-29T05:40:58;17.70;99.90
27540;DHT22;15906;52.046;4.724;2023-07-29T05:43:27;17.80;99.90
27540;DHT22;15906;52.046;4.724;2023-07-29T05:45:52;17.80;99.90
27540;DHT22;15906;52.046;4.724;2023-07-29T05:48:19;17.80;99.90
27540;DHT22;15906;52.046;4.724;2023-07-29T05:50:45;17.80;99.90
27540;DHT22;15906;52.046;4.724;2023-07-29T05:53:11;17.80;99.90
27540;DHT22;15906;52.046;4.724;2023-07-29T05:55:36;18.00;99.90
27540;DHT22;15906;52.046;4.724;2023-07-29T05:58:02;17.90;99.90
27540;DHT22;15906;52.046;4.724;2023-07-29T06:00:27;18.10;99.90
27540;DHT22;15906;52.046;4.724;2023-07-29T06:02:53;18.00;99.90
27540;DHT22;15906;52.046;4.724;2023-07-29T06:05:18;18.00;99.90
27540;DHT22;15906;52.046;4.724;2023-07-29T06:07:44;18.00;99.90
27540;DHT22;15906;52.046;4.724;2023-07-29T06:10:14;18.10;99.90
27540;DHT22;15906;52.046;4.724;2023-07-29T06:12:44;18.00;99.90
27540;DHT22;15906;52.046;4.724;2023-07-29T06:15:10;18.10;99.90
27540;DHT22;15906;52.046;4.724;2023-07-29T06:17:35;18.10;99.90
27540;DHT22;15906;52.046;4.724;2023-07-29T06:20:01;18.20;99.90
27540;DHT22;15906;52.046;4.724;2023-07-29T06:22:26;18.20;99.90
27540;DHT22;15906;52.046;4.724;2023-07-29T06:24:52;18.30;99.90
27540;DHT22;15906;52.046;4.724;2023-07-29T06:27:17;18.40;99.90
27540;DHT22;15906;52.046;4.724;2023-07-29T06:29:43;18.40;99.90
27540;DHT22;15906;52.046;4.724;2023-07-29T06:32:09;18.50;99.90
27540;DHT22;15906;52.046;4.724;2023-07-29T06:34:34;18.50;99.90
27540;DHT22;15906;52.046;4.724;2023-07-29T06:37:00;18.50;99.90
27540;DHT22;15906;52.046;4.724;2023-07-29T06:39:25;18.50;99.90
27540;DHT22;15906;52.046;4.724;2023-07-29T06:41:51;18.50;99.90
27540;DHT22;15906;52.046;4.724;2023-07-29T06:44:16;18.60;99.90
27540;DHT22;15906;52.046;4.724;2023-07-29T06:46:42;18.70;99.90
27540;DHT22;15906;52.046;4.724;2023-07-29T06:49:07;18.70;99.90
27540;DHT22;15906;52.046;4.724;2023-07-29T06:51:33;18.70;99.90
27540;DHT22;15906;52.046;4.724;2023-07-29T06:54:03;18.70;99.90
27540;DHT22;15906;52.046;4.724;2023-07-29T06:56:29;18.90;99.90
27540;DHT22;15906;52.046;4.724;2023-07-29T06:58:55;19.10;99.90
27540;DHT22;15906;52.046;4.724;2023-07-29T07:01:20;19.10;99.90
27540;DHT22;15906;52.046;4.724;2023-07-29T07:03:46;19.30;99.90
27540;DHT22;15906;52.046;4.724;2023-07-29T07:06:11;19.30;99.90
27540;DHT22;15906;52.046;4.724;2023-07-29T07:08:37;19.40;99.90
27540;DHT22;15906;52.046;4.724;2023-07-29T07:11:02;19.30;99.90
27540;DHT22;15906;52.046;4.724;2023-07-29T07:13:28;19.60;99.90
27540;DHT22;15906;52.046;4.724;2023-07-29T07:15:57;19.90;99.90
27540;DHT22;15906;52.046;4.724;2023-07-29T07:18:22;19.90;99.90
27540;DHT22;15906;52.046;4.724;2023-07-29T07:20:49;19.90;99.90
27540;DHT22;15906;52.046;4.724;2023-07-29T07:23:15;19.80;99.90
27540;DHT22;15906;52.046;4.724;2023-07-29T07:25:41;19.70;99.90
27540;DHT22;15906;52.046;4.724;2023-07-29T07:28:08;19.60;99.90
27540;DHT22;15906;52.046;4.724;2023-07-29T07:30:34;19.80;99.90
27540;DHT22;15906;52.046;4.724;2023-07-29T07:33:00;20.00;99.90
27540;DHT22;15906;52.046;4.724;2023-07-29T07:35:26;20.00;99.90
27540;DHT22;15906;52.046;4.724;2023-07-29T07:37:51;20.00;99.90
27540;DHT22;15906;52.046;4.724;2023-07-29T07:40:17;19.90;99.90
27540;DHT22;15906;52.046;4.724;2023-07-29T07:42:42;20.00;99.90
27540;DHT22;15906;52.046;4.724;2023-07-29T07:45:08;20.30;99.90
27540;DHT22;15906;52.046;4.724;2023-07-29T07:47:33;20.60;99.90
27540;DHT22;15906;52.046;4.724;2023-07-29T07:49:59;20.90;99.90
27540;DHT22;15906;52.046;4.724;2023-07-29T07:52:24;21.20;99.90
27540;DHT22;15906;52.046;4.724;2023-07-29T07:54:54;21.20;99.90
27540;DHT22;15906;52.046;4.724;2023-07-29T07:57:23;21.10;99.90
27540;DHT22;15906;52.046;4.724;2023-07-29T07:59:48;20.90;99.90
27540;DHT22;15906;52.046;4.724;2023-07-29T08:02:14;20.80;99.90
27540;DHT22;15906;52.046;4.724;2023-07-29T08:04:39;20.60;99.90
27540;DHT22;15906;52.046;4.724;2023-07-29T08:07:05;20.50;99.90
27540;DHT22;15906;52.046;4.724;2023-07-29T08:09:31;20.40;99.90
27540;DHT22;15906;52.046;4.724;2023-07-29T08:11:56;20.30;99.90
27540;DHT22;15906;52.046;4.724;2023-07-29T08:14:22;20.30;99.90
27540;DHT22;15906;52.046;4.724;2023-07-29T08:16:47;20.50;99.90
27540;DHT22;15906;52.046;4.724;2023-07-29T08:19:13;21.10;99.90
27540;DHT22;15906;52.046;4.724;2023-07-29T08:21:38;21.50;99.90
27540;DHT22;15906;52.046;4.724;2023-07-29T08:24:04;21.60;99.90
27540;DHT22;15906;52.046;4.724;2023-07-29T08:26:30;21.60;99.90
27540;DHT22;15906;52.046;4.724;2023-07-29T08:28:55;21.50;99.90
27540;DHT22;15906;52.046;4.724;2023-07-29T08:31:21;21.50;99.90
27540;DHT22;15906;52.046;4.724;2023-07-29T08:33:46;21.20;99.90
27540;DHT22;15906;52.046;4.724;2023-07-29T08:36:12;21.20;99.90
27540;DHT22;15906;52.046;4.724;2023-07-29T08:38:37;21.30;99.90
27540;DHT22;15906;52.046;4.724;2023-07-29T08:41:26;21.60;99.90
27540;DHT22;15906;52.046;4.724;2023-07-29T08:44:06;21.60;99.90
27540;DHT22;15906;52.046;4.724;2023-07-29T08:46:33;21.30;99.90
27540;DHT22;15906;52.046;4.724;2023-07-29T08:48:59;21.20;99.90
27540;DHT22;15906;52.046;4.724;2023-07-29T08:51:27;21.10;99.90
27540;DHT22;15906;52.046;4.724;2023-07-29T08:53:53;20.90;99.90
27540;DHT22;15906;52.046;4.724;2023-07-29T08:56:19;20.70;99.90
27540;DHT22;15906;52.046;4.724;2023-07-29T08:58:45;20.60;99.90
27540;DHT22;15906;52.046;4.724;2023-07-29T09:01:10;20.50;99.90
27540;DHT22;15906;52.046;4.724;2023-07-29T09:03:37;20.40;99.90
27540;DHT22;15906;52.046;4.724;2023-07-29T09:06:03;20.30;99.90
27540;DHT22;15906;52.046;4.724;2023-07-29T09:08:29;20.40;99.90
27540;DHT22;15906;52.046;4.724;2023-07-29T09:10:55;20.40;99.90
27540;DHT22;15906;52.046;4.724;2023-07-29T09:13:21;20.40;99.90
27540;DHT22;15906;52.046;4.724;2023-07-29T09:15:47;20.40;99.90
27540;DHT22;15906;52.046;4.724;2023-07-29T09:18:18;20.50;99.90
27540;DHT22;15906;52.046;4.724;2023-07-29T09:20:46;20.50;99.90
27540;DHT22;15906;52.046;4.724;2023-07-29T09:23:13;20.50;99.90
27540;DHT22;15906;52.046;4.724;2023-07-29T09:25:39;20.40;99.90
27540;DHT22;15906;52.046;4.724;2023-07-29T09:28:12;20.30;99.90
27540;DHT22;15906;52.046;4.724;2023-07-29T09:30:42;20.30;99.90
27540;DHT22;15906;52.046;4.724;2023-07-29T09:33:08;20.20;99.90
27540;DHT22;15906;52.046;4.724;2023-07-29T09:35:35;20.20;99.90
27540;DHT22;15906;52.046;4.724;2023-07-29T09:38:05;20.00;99.90
27540;DHT22;15906;52.046;4.724;2023-07-29T09:40:38;20.00;99.90
27540;DHT22;15906;52.046;4.724;2023-07-29T09:43:04;19.90;99.90
27540;DHT22;15906;52.046;4.724;2023-07-29T09:45:32;20.00;99.90
27540;DHT22;15906;52.046;4.724;2023-07-29T09:47:58;20.10;99.90
27540;DHT22;15906;52.046;4.724;2023-07-29T09:50:24;20.30;99.90
27540;DHT22;15906;52.046;4.724;2023-07-29T09:52:51;20.30;99.90
27540;DHT22;15906;52.046;4.724;2023-07-29T09:55:18;20.50;99.90
27540;DHT22;15906;52.046;4.724;2023-07-29T09:57:44;20.70;99.90
27540;DHT22;15906;52.046;4.724;2023-07-29T10:00:13;20.70;99.90
27540;DHT22;15906;52.046;4.724;2023-07-29T10:02:40;20.70;99.90
27540;DHT22;15906;52.046;4.724;2023-07-29T10:05:07;20.70;99.90
27540;DHT22;15906;52.046;4.724;2023-07-29T10:07:36;20.60;99.90
27540;DHT22;15906;52.046;4.724;2023-07-29T10:10:04;20.60;99.90
27540;DHT22;15906;52.046;4.724;2023-07-29T10:12:34;20.70;99.90
27540;DHT22;15906;52.046;4.724;2023-07-29T10:15:03;20.80;99.90
27540;DHT22;15906;52.046;4.724;2023-07-29T10:17:29;20.90;99.90
27540;DHT22;15906;52.046;4.724;2023-07-29T10:19:56;20.80;99.90
27540;DHT22;15906;52.046;4.724;2023-07-29T10:22:25;20.80;99.90
27540;DHT22;15906;52.046;4.724;2023-07-29T10:24:56;20.70;99.90
27540;DHT22;15906;52.046;4.724;2023-07-29T10:27:25;20.50;99.90
27540;DHT22;15906;52.046;4.724;2023-07-29T10:29:53;20.50;99.90
27540;DHT22;15906;52.046;4.724;2023-07-29T10:32:24;20.40;99.90
27540;DHT22;15906;52.046;4.724;2023-07-29T10:34:50;20.30;99.90
27540;DHT22;15906;52.046;4.724;2023-07-29T10:37:16;20.20;99.90
27540;DHT22;15906;52.046;4.724;2023-07-29T10:39:52;20.10;99.90
27540;DHT22;15906;52.046;4.724;2023-07-29T10:42:19;20.00;99.90
27540;DHT22;15906;52.046;4.724;2023-07-29T10:44:52;19.90;99.90
27540;DHT22;15906;52.046;4.724;2023-07-29T10:47:19;19.80;99.90
27540;DHT22;15906;52.046;4.724;2023-07-29T10:49:48;19.70;99.90
27540;DHT22;15906;52.046;4.724;2023-07-29T10:52:15;19.70;99.90
27540;DHT22;15906;52.046;4.724;2023-07-29T10:54:46;19.60;99.90
27540;DHT22;15906;52.046;4.724;2023-07-29T10:57:20;19.40;99.90
27540;DHT22;15906;52.046;4.724;2023-07-29T10:59:56;19.40;99.90
27540;DHT22;15906;52.046;4.724;2023-07-29T11:02:31;19.30;99.90
27540;DHT22;15906;52.046;4.724;2023-07-29T11:04:58;19.20;99.90
27540;DHT22;15906;52.046;4.724;2023-07-29T11:07:27;19.30;99.90
27540;DHT22;15906;52.046;4.724;2023-07-29T11:10:03;19.30;99.90
27540;DHT22;15906;52.046;4.724;2023-07-29T11:18:08;19.60;99.90
27540;DHT22;15906;52.046;4.724;2023-07-29T11:20:34;19.90;99.90
27540;DHT22;15906;52.046;4.724;2023-07-29T11:23:03;20.10;99.90
27540;DHT22;15906;52.046;4.724;2023-07-29T11:25:30;20.60;99.90
27540;DHT22;15906;52.046;4.724;2023-07-29T11:27:58;21.00;99.90
27540;DHT22;15906;52.046;4.724;2023-07-29T11:30:24;21.10;99.90
27540;DHT22;15906;52.046;4.724;2023-07-29T11:32:53;21.20;99.90
27540;DHT22;15906;52.046;4.724;2023-07-29T11:35:19;21.40;99.90
27540;DHT22;15906;52.046;4.724;2023-07-29T11:37:49;21.40;99.90
27540;DHT22;15906;52.046;4.724;2023-07-29T11:40:22;21.70;99.90
27540;DHT22;15906;52.046;4.724;2023-07-29T11:42:49;21.80;99.90
27540;DHT22;15906;52.046;4.724;2023-07-29T11:45:19;21.70;99.90
27540;DHT22;15906;52.046;4.724;2023-07-29T11:47:45;21.50;99.90
27540;DHT22;15906;52.046;4.724;2023-07-29T11:50:12;21.30;99.90
27540;DHT22;15906;52.046;4.724;2023-07-29T11:52:43;21.10;99.90
27540;DHT22;15906;52.046;4.724;2023-07-29T11:55:09;20.90;99.90
27540;DHT22;15906;52.046;4.724;2023-07-29T11:57:36;20.60;99.90
27540;DHT22;15906;52.046;4.724;2023-07-29T12:00:06;20.60;99.90
27540;DHT22;15906;52.046;4.724;2023-07-29T12:02:37;20.50;99.90
27540;DHT22;15906;52.046;4.724;2023-07-29T12:05:04;20.50;99.90
27540;DHT22;15906;52.046;4.724;2023-07-29T12:07:30;20.50;99.90
27540;DHT22;15906;52.046;4.724;2023-07-29T12:09:56;20.50;99.90
27540;DHT22;15906;52.046;4.724;2023-07-29T12:12:22;20.60;99.90
27540;DHT22;15906;52.046;4.724;2023-07-29T12:14:48;20.60;99.90
27540;DHT22;15906;52.046;4.724;2023-07-29T12:17:14;20.70;99.90
27540;DHT22;15906;52.046;4.724;2023-07-29T12:19:41;20.90;99.90
27540;DHT22;15906;52.046;4.724;2023-07-29T12:22:09;21.20;99.90
27540;DHT22;15906;52.046;4.724;2023-07-29T12:24:37;21.70;99.90
27540;DHT22;15906;52.046;4.724;2023-07-29T12:27:03;22.00;99.90
27540;DHT22;15906;52.046;4.724;2023-07-29T12:29:28;22.00;99.90
27540;DHT22;15906;52.046;4.724;2023-07-29T12:31:59;22.30;99.90
27540;DHT22;15906;52.046;4.724;2023-07-29T12:34:30;22.70;99.90
27540;DHT22;15906;52.046;4.724;2023-07-29T12:36:57;23.10;99.90
27540;DHT22;15906;52.046;4.724;2023-07-29T12:39:25;23.30;99.90
27540;DHT22;15906;52.046;4.724;2023-07-29T12:41:53;23.60;99.90
27540;DHT22;15906;52.046;4.724;2023-07-29T12:44:19;23.40;99.90
27540;DHT22;15906;52.046;4.724;2023-07-29T12:46:44;23.30;99.90
27540;DHT22;15906;52.046;4.724;2023-07-29T12:49:10;23.10;99.90
27540;DHT22;15906;52.046;4.724;2023-07-29T12:51:36;23.40;99.90
27540;DHT22;15906;52.046;4.724;2023-07-29T12:54:03;23.60;99.90
27540;DHT22;15906;52.046;4.724;2023-07-29T12:56:29;23.90;99.90
27540;DHT22;15906;52.046;4.724;2023-07-29T12:58:57;24.00;99.90
27540;DHT22;15906;52.046;4.724;2023-07-29T13:01:23;24.00;99.90
27540;DHT22;15906;52.046;4.724;2023-07-29T13:03:48;24.20;99.90
27540;DHT22;15906;52.046;4.724;2023-07-29T13:06:14;24.40;99.90
27540;DHT22;15906;52.046;4.724;2023-07-29T13:08:41;24.60;99.90
27540;DHT22;15906;52.046;4.724;2023-07-29T13:11:06;24.70;99.90
27540;DHT22;15906;52.046;4.724;2023-07-29T13:13:32;24.90;99.90
27540;DHT22;15906;52.046;4.724;2023-07-29T13:15:58;25.00;99.90
27540;DHT22;15906;52.046;4.724;2023-07-29T13:18:23;25.00;99.90
27540;DHT22;15906;52.046;4.724;2023-07-29T13:20:49;25.20;99.90
27540;DHT22;15906;52.046;4.724;2023-07-29T13:23:15;25.30;99.90
27540;DHT22;15906;52.046;4.724;2023-07-29T13:25:41;25.50;99.90
27540;DHT22;15906;52.046;4.724;2023-07-29T13:28:08;25.40;99.90
27540;DHT22;15906;52.046;4.724;2023-07-29T13:30:34;25.40;99.90
27540;DHT22;15906;52.046;4.724;2023-07-29T13:32:59;25.60;99.90
27540;DHT22;15906;52.046;4.724;2023-07-29T13:35:25;25.60;99.90
27540;DHT22;15906;52.046;4.724;2023-07-29T13:37:51;25.60;99.90
27540;DHT22;15906;52.046;4.724;2023-07-29T13:40:16;25.60;99.90
27540;DHT22;15906;52.046;4.724;2023-07-29T13:42:42;25.70;99.90
27540;DHT22;15906;52.046;4.724;2023-07-29T13:45:08;25.70;99.90
27540;DHT22;15906;52.046;4.724;2023-07-29T13:47:33;25.60;99.90
27540;DHT22;15906;52.046;4.724;2023-07-29T13:49:59;25.30;99.90
27540;DHT22;15906;52.046;4.724;2023-07-29T13:52:25;25.10;99.90
27540;DHT22;15906;52.046;4.724;2023-07-29T13:54:51;24.90;99.90
27540;DHT22;15906;52.046;4.724;2023-07-29T13:57:16;24.80;99.90
27540;DHT22;15906;52.046;4.724;2023-07-29T13:59:42;24.40;99.90
27540;DHT22;15906;52.046;4.724;2023-07-29T14:02:07;24.10;99.90
27540;DHT22;15906;52.046;4.724;2023-07-29T14:04:33;23.90;99.90
27540;DHT22;15906;52.046;4.724;2023-07-29T14:06:58;23.90;99.90
27540;DHT22;15906;52.046;4.724;2023-07-29T14:09:25;23.90;99.90
27540;DHT22;15906;52.046;4.724;2023-07-29T14:11:51;23.80;99.90
27540;DHT22;15906;52.046;4.724;2023-07-29T14:14:16;23.70;99.90
27540;DHT22;15906;52.046;4.724;2023-07-29T14:16:42;23.70;99.90
27540;DHT22;15906;52.046;4.724;2023-07-29T14:19:08;23.60;99.90
27540;DHT22;15906;52.046;4.724;2023-07-29T14:21:33;23.60;99.90
27540;DHT22;15906;52.046;4.724;2023-07-29T14:23:59;23.70;99.90
27540;DHT22;15906;52.046;4.724;2023-07-29T14:26:24;23.50;99.90
27540;DHT22;15906;52.046;4.724;2023-07-29T14:28:50;23.40;99.90
27540;DHT22;15906;52.046;4.724;2023-07-29T14:31:16;23.20;99.90
27540;DHT22;15906;52.046;4.724;2023-07-29T14:33:44;23.20;99.90
27540;DHT22;15906;52.046;4.724;2023-07-29T14:36:10;23.20;99.90
27540;DHT22;15906;52.046;4.724;2023-07-29T14:38:36;23.30;99.90
27540;DHT22;15906;52.046;4.724;2023-07-29T14:41:02;23.40;99.90
27540;DHT22;15906;52.046;4.724;2023-07-29T14:43:30;23.40;99.90
27540;DHT22;15906;52.046;4.724;2023-07-29T14:45:55;23.30;99.90
27540;DHT22;15906;52.046;4.724;2023-07-29T14:48:21;23.10;99.90
27540;DHT22;15906;52.046;4.724;2023-07-29T14:50:47;23.00;99.90
27540;DHT22;15906;52.046;4.724;2023-07-29T14:53:13;22.90;99.90
27540;DHT22;15906;52.046;4.724;2023-07-29T14:55:38;22.80;99.90
27540;DHT22;15906;52.046;4.724;2023-07-29T14:58:04;22.90;99.90
27540;DHT22;15906;52.046;4.724;2023-07-29T15:00:29;23.10;99.90
27540;DHT22;15906;52.046;4.724;2023-07-29T15:02:55;23.20;99.90
27540;DHT22;15906;52.046;4.724;2023-07-29T15:05:20;23.10;99.90
27540;DHT22;15906;52.046;4.724;2023-07-29T15:07:46;23.10;99.90
27540;DHT22;15906;52.046;4.724;2023-07-29T15:10:14;23.10;99.90
27540;DHT22;15906;52.046;4.724;2023-07-29T15:12:41;23.20;99.90
27540;DHT22;15906;52.046;4.724;2023-07-29T15:15:07;23.10;99.90
27540;DHT22;15906;52.046;4.724;2023-07-29T15:17:33;23.00;99.90
27540;DHT22;15906;52.046;4.724;2023-07-29T15:19:59;22.80;99.90
27540;DHT22;15906;52.046;4.724;2023-07-29T15:22:24;22.70;99.90
27540;DHT22;15906;52.046;4.724;2023-07-29T15:24:50;22.60;99.90
27540;DHT22;15906;52.046;4.724;2023-07-29T15:27:15;22.60;99.90
27540;DHT22;15906;52.046;4.724;2023-07-29T15:29:41;22.60;99.90
27540;DHT22;15906;52.046;4.724;2023-07-29T15:32:07;22.60;99.90
27540;DHT22;15906;52.046;4.724;2023-07-29T15:34:33;22.60;99.90